sensor_id;sensor_type;location;lat;lon;timestamp;temperature;humidity
8178;DHT22;4130;48.740;9.132;2022-09-09T00:00:26;12.50;99.90
8178;DHT22;4130;48.740;9.132;2022-09-09T00:03:02;12.50;99.90
8178;DHT22;4130;48.740;9.132;2022-09-09T00:05:38;12.50;99.90
8178;DHT22;4130;48.740;9.132;2022-09-09T00:08:17;12.50;99.90
8178;DHT22;4130;48.740;9.132;2022-09-09T00:10:48;12.50;99.90
8178;DHT22;4130;48.740;9.132;2022-09-09T00:13:21;12.50;99.90
8178;DHT22;4130;48.740;9.132;2022-09-09T00:15:56;12.50;99.90
8178;DHT22;4130;48.740;9.132;2022-09-09T00:18:28;12.40;99.90
8178;DHT22;4130;48.740;9.132;2022-09-09T00:21:05;12.50;99.90
8178;DHT22;4130;48.740;9.132;2022-09-09T00:23:35;12.50;99.90
8178;DHT22;4130;48.740;9.132;2022-09-09T00:26:08;12.60;99.90
8178;DHT22;4130;48.740;9.132;2022-09-09T00:28:39;12.70;99.90
8178;DHT22;4130;48.740;9.132;2022-09-09T00:31:13;12.70;99.90
8178;DHT22;4130;48.740;9.132;2022-09-09T00:33:41;12.80;99.90
8178;DHT22;4130;48.740;9.132;2022-09-09T00:36:13;12.80;99.90
8178;DHT22;4130;48.740;9.132;2022-09-09T00:38:46;12.90;99.90
8178;DHT22;4130;48.740;9.132;2022-09-09T00:41:19;13.00;99.90
8178;DHT22;4130;48.740;9.132;2022-09-09T00:43:56;13.00;99.90
8178;DHT22;4130;48.740;9.132;2022-09-09T00:46:53;13.10;99.90
8178;DHT22;4130;48.740;9.132;2022-09-09T00:49:32;13.20;99.90
8178;DHT22;4130;48.740;9.132;2022-09-09T00:52:12;13.20;99.90
8178;DHT22;4130;48.740;9.132;2022-09-09T00:54:49;13.20;99.90
8178;DHT22;4130;48.740;9.132;2022-09-09T00:57:25;13.30;99.90
8178;DHT22;4130;48.740;9.132;2022-09-09T00:59:59;13.30;99.90
8178;DHT22;4130;48.740;9.132;2022-09-09T01:02:42;13.30;99.90
8178;DHT22;4130;48.740;9.132;2022-09-09T01:05:22;13.30;99.90
8178;DHT22;4130;48.740;9.132;2022-09-09T01:07:51;13.30;99.90
8178;DHT22;4130;48.740;9.132;2022-09-09T01:10:26;13.30;99.90
8178;DHT22;4130;48.740;9.132;2022-09-09T01:12:56;13.30;99.90
8178;DHT22;4130;48.740;9.132;2022-09-09T01:15:28;13.30;99.90
8178;DHT22;4130;48.740;9.132;2022-09-09T01:18:02;13.30;99.90
8178;DHT22;4130;48.740;9.132;2022-09-09T01:20:38;13.20;99.90
8178;DHT22;4130;48.740;9.132;2022-09-09T01:23:33;13.20;99.90
8178;DHT22;4130;48.740;9.132;2022-09-09T01:26:18;13.20;99.90
8178;DHT22;4130;48.740;9.132;2022-09-09T01:28:47;13.20;99.90
8178;DHT22;4130;48.740;9.132;2022-09-09T01:31:18;13.20;99.90
8178;DHT22;4130;48.740;9.132;2022-09-09T01:33:46;13.20;99.90
8178;DHT22;4130;48.740;9.132;2022-09-09T01:36:20;13.20;99.90
8178;DHT22;4130;48.740;9.132;2022-09-09T01:38:50;13.20;99.90
8178;DHT22;4130;48.740;9.132;2022-09-09T01:41:19;13.20;99.90
8178;DHT22;4130;48.740;9.132;2022-09-09T01:43:46;13.10;99.90
8178;DHT22;4130;48.740;9.132;2022-09-09T01:46:14;13.10;99.90
8178;DHT22;4130;48.740;9.132;2022-09-09T01:48:43;13.10;99.90
8178;DHT22;4130;48.740;9.132;2022-09-09T01:51:10;13.00;99.90
8178;DHT22;4130;48.740;9.132;2022-09-09T01:53:38;13.00;99.90
8178;DHT22;4130;48.740;9.132;2022-09-09T01:56:15;13.00;99.90
8178;DHT22;4130;48.740;9.132;2022-09-09T01:58:59;12.90;99.90
8178;DHT22;4130;48.740;9.132;2022-09-09T02:01:39;12.80;99.90
8178;DHT22;4130;48.740;9.132;2022-09-09T02:04:17;12.70;99.90
8178;DHT22;4130;48.740;9.132;2022-09-09T02:06:48;12.70;99.90
8178;DHT22;4130;48.740;9.132;2022-09-09T02:09:19;12.60;99.90
8178;DHT22;4130;48.740;9.132;2022-09-09T02:11:54;12.50;99.90
8178;DHT22;4130;48.740;9.132;2022-09-09T02:14:30;12.40;99.90
8178;DHT22;4130;48.740;9.132;2022-09-09T02:17:03;12.40;99.90
8178;DHT22;4130;48.740;9.132;2022-09-09T02:19:33;12.30;99.90
8178;DHT22;4130;48.740;9.132;2022-09-09T02:22:01;12.30;99.90
8178;DHT22;4130;48.740;9.132;2022-09-09T02:24:31;12.30;99.90
8178;DHT22;4130;48.740;9.132;2022-09-09T02:27:01;12.30;99.90
8178;DHT22;4130;48.740;9.132;2022-09-09T02:29:34;12.20;99.90
8178;DHT22;4130;48.740;9.132;2022-09-09T02:32:04;12.20;99.90
8178;DHT22;4130;48.740;9.132;2022-09-09T02:34:36;12.20;99.90
8178;DHT22;4130;48.740;9.132;2022-09-09T02:37:04;12.20;99.90
8178;DHT22;4130;48.740;9.132;2022-09-09T02:39:33;12.10;99.90
8178;DHT22;4130;48.740;9.132;2022-09-09T02:42:00;12.10;99.90
8178;DHT22;4130;48.740;9.132;2022-09-09T02:44:30;12.10;99.90
8178;DHT22;4130;48.740;9.132;2022-09-09T02:47:10;12.10;99.90
8178;DHT22;4130;48.740;9.132;2022-09-09T02:49:48;12.00;99.90
8178;DHT22;4130;48.740;9.132;2022-09-09T02:52:20;12.00;99.90
8178;DHT22;4130;48.740;9.132;2022-09-09T02:54:50;12.00;99.90
8178;DHT22;4130;48.740;9.132;2022-09-09T02:57:24;12.00;99.90
8178;DHT22;4130;48.740;9.132;2022-09-09T02:59:57;12.00;99.90
8178;DHT22;4130;48.740;9.132;2022-09-09T03:02:25;12.00;99.90
8178;DHT22;4130;48.740;9.132;2022-09-09T03:04:52;12.10;99.90
8178;DHT22;4130;48.740;9.132;2022-09-09T03:07:19;12.20;99.90
8178;DHT22;4130;48.740;9.132;2022-09-09T03:09:46;12.40;99.90
8178;DHT22;4130;48.740;9.132;2022-09-09T03:12:13;12.40;99.90
8178;DHT22;4130;48.740;9.132;2022-09-09T03:14:40;12.30;99.90
8178;DHT22;4130;48.740;9.132;2022-09-09T03:17:10;12.30;99.90
8178;DHT22;4130;48.740;9.132;2022-09-09T03:19:37;12.30;99.90
8178;DHT22;4130;48.740;9.132;2022-09-09T03:22:05;12.20;99.90
8178;DHT22;4130;48.740;9.132;2022-09-09T03:24:32;12.20;99.90
8178;DHT22;4130;48.740;9.132;2022-09-09T03:26:59;12.20;99.90
8178;DHT22;4130;48.740;9.132;2022-09-09T03:29:26;12.20;99.90
8178;DHT22;4130;48.740;9.132;2022-09-09T03:31:53;12.10;99.90
8178;DHT22;4130;48.740;9.132;2022-09-09T03:34:21;12.20;99.90
8178;DHT22;4130;48.740;9.132;2022-09-09T03:36:48;12.10;99.90
8178;DHT22;4130;48.740;9.132;2022-09-09T03:39:15;12.30;99.90
8178;DHT22;4130;48.740;9.132;2022-09-09T03:41:42;12.30;99.90
8178;DHT22;4130;48.740;9.132;2022-09-09T03:44:12;12.50;99.90
8178;DHT22;4130;48.740;9.132;2022-09-09T03:46:39;12.60;99.90
8178;DHT22;4130;48.740;9.132;2022-09-09T03:49:06;12.60;99.90
8178;DHT22;4130;48.740;9.132;2022-09-09T03:51:36;12.60;99.90
8178;DHT22;4130;48.740;9.132;2022-09-09T03:54:04;12.60;99.90
8178;DHT22;4130;48.740;9.132;2022-09-09T03:56:33;12.70;99.90
8178;DHT22;4130;48.740;9.132;2022-09-09T03:59:00;12.80;99.90
8178;DHT22;4130;48.740;9.132;2022-09-09T04:01:28;12.80;99.90
8178;DHT22;4130;48.740;9.132;2022-09-09T04:03:55;12.80;99.90
8178;DHT22;4130;48.740;9.132;2022-09-09T04:06:24;12.80;99.90
8178;DHT22;4130;48.740;9.132;2022-09-09T04:08:53;12.90;99.90
8178;DHT22;4130;48.740;9.132;2022-09-09T04:11:24;13.00;99.90
8178;DHT22;4130;48.740;9.132;2022-09-09T04:13:50;13.10;99.90
8178;DHT22;4130;48.740;9.132;2022-09-09T04:16:17;13.20;99.90
8178;DHT22;4130;48.740;9.132;2022-09-09T04:18:46;13.20;99.90
8178;DHT22;4130;48.740;9.132;2022-09-09T04:21:13;13.30;99.90
8178;DHT22;4130;48.740;9.132;2022-09-09T04:23:41;13.30;99.90
8178;DHT22;4130;48.740;9.132;2022-09-09T04:26:09;13.50;99.90
8178;DHT22;4130;48.740;9.132;2022-09-09T04:28:36;13.60;99.90
8178;DHT22;4130;48.740;9.132;2022-09-09T04:31:08;13.60;99.90
8178;DHT22;4130;48.740;9.132;2022-09-09T04:33:36;13.70;99.90
8178;DHT22;4130;48.740;9.132;2022-09-09T04:36:05;13.70;99.90
8178;DHT22;4130;48.740;9.132;2022-09-09T04:38:32;13.70;99.90
8178;DHT22;4130;48.740;9.132;2022-09-09T04:40:59;13.70;99.90
8178;DHT22;4130;48.740;9.132;2022-09-09T04:43:30;13.70;99.90
8178;DHT22;4130;48.740;9.132;2022-09-09T04:45:57;13.70;99.90
8178;DHT22;4130;48.740;9.132;2022-09-09T04:48:25;13.70;99.90
8178;DHT22;4130;48.740;9.132;2022-09-09T04:50:56;13.60;99.90
8178;DHT22;4130;48.740;9.132;2022-09-09T04:53:24;13.50;99.90
8178;DHT22;4130;48.740;9.132;2022-09-09T04:55:51;13.40;99.90
8178;DHT22;4130;48.740;9.132;2022-09-09T04:58:18;13.40;99.90
8178;DHT22;4130;48.740;9.132;2022-09-09T05:00:48;13.30;99.90
8178;DHT22;4130;48.740;9.132;2022-09-09T05:03:16;13.20;99.90
8178;DHT22;4130;48.740;9.132;2022-09-09T05:05:43;13.20;99.90
8178;DHT22;4130;48.740;9.132;2022-09-09T05:08:10;13.20;99.90
8178;DHT22;4130;48.740;9.132;2022-09-09T05:10:38;13.10;99.90
8178;DHT22;4130;48.740;9.132;2022-09-09T05:13:07;13.20;99.90
8178;DHT22;4130;48.740;9.132;2022-09-09T05:15:34;13.30;99.90
8178;DHT22;4130;48.740;9.132;2022-09-09T05:18:03;13.40;99.90
8178;DHT22;4130;48.740;9.132;2022-09-09T05:20:30;13.50;99.90
8178;DHT22;4130;48.740;9.132;2022-09-09T05:22:57;13.60;99.90
8178;DHT22;4130;48.740;9.132;2022-09-09T05:25:24;13.70;99.90
8178;DHT22;4130;48.740;9.132;2022-09-09T05:27:52;13.70;99.90
8178;DHT22;4130;48.740;9.132;2022-09-09T05:30:20;13.80;99.90
8178;DHT22;4130;48.740;9.132;2022-09-09T05:32:47;13.90;99.90
8178;DHT22;4130;48.740;9.132;2022-09-09T05:35:17;14.00;99.90
8178;DHT22;4130;48.740;9.132;2022-09-09T05:37:44;14.10;99.90
8178;DHT22;4130;48.740;9.132;2022-09-09T05:40:12;14.20;99.90
8178;DHT22;4130;48.740;9.132;2022-09-09T05:42:39;14.30;99.90
8178;DHT22;4130;48.740;9.132;2022-09-09T05:45:07;14.30;99.90
8178;DHT22;4130;48.740;9.132;2022-09-09T05:47:34;14.50;99.90
8178;DHT22;4130;48.740;9.132;2022-09-09T05:50:03;14.50;99.90
8178;DHT22;4130;48.740;9.132;2022-09-09T05:52:31;14.60;99.90
8178;DHT22;4130;48.740;9.132;2022-09-09T05:54:58;14.70;99.90
8178;DHT22;4130;48.740;9.132;2022-09-09T05:57:25;14.80;99.90
8178;DHT22;4130;48.740;9.132;2022-09-09T05:59:52;14.90;99.90
8178;DHT22;4130;48.740;9.132;2022-09-09T06:02:20;15.00;99.90
8178;DHT22;4130;48.740;9.132;2022-09-09T06:04:47;15.00;99.90
8178;DHT22;4130;48.740;9.132;2022-09-09T06:07:14;15.10;99.90
8178;DHT22;4130;48.740;9.132;2022-09-09T06:09:42;15.20;99.90
8178;DHT22;4130;48.740;9.132;2022-09-09T06:12:09;15.30;99.90
8178;DHT22;4130;48.740;9.132;2022-09-09T06:14:36;15.40;99.90
8178;DHT22;4130;48.740;9.132;2022-09-09T06:17:03;15.50;99.90
8178;DHT22;4130;48.740;9.132;2022-09-09T06:19:30;15.60;99.90
8178;DHT22;4130;48.740;9.132;2022-09-09T06:21:57;15.60;99.90
8178;DHT22;4130;48.740;9.132;2022-09-09T06:24:25;15.70;99.90
8178;DHT22;4130;48.740;9.132;2022-09-09T06:26:54;15.80;99.90
8178;DHT22;4130;48.740;9.132;2022-09-09T06:29:21;15.80;99.90
8178;DHT22;4130;48.740;9.132;2022-09-09T06:31:48;15.80;99.90
8178;DHT22;4130;48.740;9.132;2022-09-09T06:34:15;15.90;99.90
8178;DHT22;4130;48.740;9.132;2022-09-09T06:36:42;15.90;99.90
8178;DHT22;4130;48.740;9.132;2022-09-09T06:39:09;16.00;99.90
8178;DHT22;4130;48.740;9.132;2022-09-09T06:41:36;16.10;99.90
8178;DHT22;4130;48.740;9.132;2022-09-09T06:44:05;16.20;99.90
8178;DHT22;4130;48.740;9.132;2022-09-09T06:46:32;16.30;99.90
8178;DHT22;4130;48.740;9.132;2022-09-09T06:49:01;16.40;99.90
8178;DHT22;4130;48.740;9.132;2022-09-09T06:51:29;16.50;99.90
8178;DHT22;4130;48.740;9.132;2022-09-09T06:53:59;16.50;99.90
8178;DHT22;4130;48.740;9.132;2022-09-09T06:56:29;16.60;99.90
8178;DHT22;4130;48.740;9.132;2022-09-09T06:58:57;16.70;99.90
8178;DHT22;4130;48.740;9.132;2022-09-09T07:01:32;16.80;99.90
8178;DHT22;4130;48.740;9.132;2022-09-09T07:03:59;16.90;99.90
8178;DHT22;4130;48.740;9.132;2022-09-09T07:06:28;17.00;99.90
8178;DHT22;4130;48.740;9.132;2022-09-09T07:08:57;17.10;99.90
8178;DHT22;4130;48.740;9.132;2022-09-09T07:11:26;17.20;99.90
8178;DHT22;4130;48.740;9.132;2022-09-09T07:13:54;17.20;99.90
8178;DHT22;4130;48.740;9.132;2022-09-09T07:16:22;17.20;99.90
8178;DHT22;4130;48.740;9.132;2022-09-09T07:18:52;17.20;99.90
8178;DHT22;4130;48.740;9.132;2022-09-09T07:21:21;17.30;99.90
8178;DHT22;4130;48.740;9.132;2022-09-09T07:23:48;17.30;99.90
8178;DHT22;4130;48.740;9.132;2022-09-09T07:26:16;17.50;99.90
8178;DHT22;4130;48.740;9.132;2022-09-09T07:28:45;17.60;99.90
8178;DHT22;4130;48.740;9.132;2022-09-09T07:31:14;17.50;99.90
8178;DHT22;4130;48.740;9.132;2022-09-09T07:33:43;17.50;99.90
8178;DHT22;4130;48.740;9.132;2022-09-09T07:36:14;17.50;99.90
8178;DHT22;4130;48.740;9.132;2022-09-09T07:38:41;17.50;99.90
8178;DHT22;4130;48.740;9.132;2022-09-09T07:41:11;17.70;99.90
8178;DHT22;4130;48.740;9.132;2022-09-09T07:43:39;18.00;99.90
8178;DHT22;4130;48.740;9.132;2022-09-09T07:46:07;18.10;99.90
8178;DHT22;4130;48.740;9.132;2022-09-09T07:48:35;18.20;99.90
8178;DHT22;4130;48.740;9.132;2022-09-09T07:51:08;18.10;99.90
8178;DHT22;4130;48.740;9.132;2022-09-09T07:53:39;17.90;99.90
8178;DHT22;4130;48.740;9.132;2022-09-09T07:56:08;17.80;99.90
8178;DHT22;4130;48.740;9.132;2022-09-09T07:58:45;17.80;99.90
8178;DHT22;4130;48.740;9.132;2022-09-09T08:01:14;17.80;99.90
8178;DHT22;4130;48.740;9.132;2022-09-09T08:03:43;18.00;99.90
8178;DHT22;4130;48.740;9.132;2022-09-09T08:06:11;18.00;99.90
8178;DHT22;4130;48.740;9.132;2022-09-09T08:08:40;18.10;99.90
8178;DHT22;4130;48.740;9.132;2022-09-09T08:11:11;18.00;99.90
8178;DHT22;4130;48.740;9.132;2022-09-09T08:13:39;18.00;99.90
8178;DHT22;4130;48.740;9.132;2022-09-09T08:16:08;18.10;99.90
8178;DHT22;4130;48.740;9.132;2022-09-09T08:18:36;18.10;99.90
8178;DHT22;4130;48.740;9.132;2022-09-09T08:21:08;18.20;99.90
8178;DHT22;4130;48.740;9.132;2022-09-09T08:23:37;18.30;99.90
8178;DHT22;4130;48.740;9.132;2022-09-09T08:26:10;18.40;99.90
8178;DHT22;4130;48.740;9.132;2022-09-09T08:28:38;18.50;99.90
8178;DHT22;4130;48.740;9.132;2022-09-09T08:31:07;18.60;99.90
8178;DHT22;4130;48.740;9.132;2022-09-09T08:33:34;18.70;99.90
8178;DHT22;4130;48.740;9.132;2022-09-09T08:36:03;18.90;99.90
8178;DHT22;4130;48.740;9.132;2022-09-09T08:38:30;19.10;99.90
8178;DHT22;4130;48.740;9.132;2022-09-09T08:41:03;19.10;99.90
8178;DHT22;4130;48.740;9.132;2022-09-09T08:43:36;19.10;99.90
8178;DHT22;4130;48.740;9.132;2022-09-09T08:46:09;19.20;99.90
8178;DHT22;4130;48.740;9.132;2022-09-09T08:48:49;19.30;99.90
8178;DHT22;4130;48.740;9.132;2022-09-09T08:51:20;19.30;99.90
8178;DHT22;4130;48.740;9.132;2022-09-09T08:53:49;19.30;99.90
8178;DHT22;4130;48.740;9.132;2022-09-09T08:56:21;19.30;99.90
8178;DHT22;4130;48.740;9.132;2022-09-09T08:58:52;19.40;99.90
8178;DHT22;4130;48.740;9.132;2022-09-09T09:01:30;19.40;99.90
8178;DHT22;4130;48.740;9.132;2022-09-09T09:04:04;19.70;99.90
8178;DHT22;4130;48.740;9.132;2022-09-09T09:06:44;20.00;99.90
8178;DHT22;4130;48.740;9.132;2022-09-09T09:09:21;19.80;99.90
8178;DHT22;4130;48.740;9.132;2022-09-09T09:11:51;19.70;99.90
8178;DHT22;4130;48.740;9.132;2022-09-09T09:14:23;19.60;99.90
8178;DHT22;4130;48.740;9.132;2022-09-09T09:16:53;19.50;99.90
8178;DHT22;4130;48.740;9.132;2022-09-09T09:19:22;19.30;99.90
8178;DHT22;4130;48.740;9.132;2022-09-09T09:21:56;18.60;99.90
8178;DHT22;4130;48.740;9.132;2022-09-09T09:24:29;17.90;99.90
8178;DHT22;4130;48.740;9.132;2022-09-09T09:27:01;17.20;99.90
8178;DHT22;4130;48.740;9.132;2022-09-09T09:29:38;16.70;99.90
8178;DHT22;4130;48.740;9.132;2022-09-09T09:32:14;16.00;99.90
8178;DHT22;4130;48.740;9.132;2022-09-09T09:34:48;15.50;99.90
8178;DHT22;4130;48.740;9.132;2022-09-09T09:37:17;15.20;99.90
8178;DHT22;4130;48.740;9.132;2022-09-09T09:39:47;15.40;99.90
8178;DHT22;4130;48.740;9.132;2022-09-09T09:42:17;16.00;99.90
8178;DHT22;4130;48.740;9.132;2022-09-09T09:44:45;16.60;99.90
8178;DHT22;4130;48.740;9.132;2022-09-09T09:47:14;17.20;99.90
8178;DHT22;4130;48.740;9.132;2022-09-09T09:49:51;17.90;99.90
8178;DHT22;4130;48.740;9.132;2022-09-09T09:52:23;18.40;99.90
8178;DHT22;4130;48.740;9.132;2022-09-09T09:54:51;19.10;99.90
8178;DHT22;4130;48.740;9.132;2022-09-09T09:57:24;19.70;99.90
8178;DHT22;4130;48.740;9.132;2022-09-09T10:00:04;20.40;99.90
8178;DHT22;4130;48.740;9.132;2022-09-09T10:02:38;20.90;99.90
8178;DHT22;4130;48.740;9.132;2022-09-09T10:05:13;21.10;99.90
8178;DHT22;4130;48.740;9.132;2022-09-09T10:07:41;21.20;99.90
8178;DHT22;4130;48.740;9.132;2022-09-09T10:10:15;21.30;99.90
8178;DHT22;4130;48.740;9.132;2022-09-09T10:12:51;21.50;99.90
8178;DHT22;4130;48.740;9.132;2022-09-09T10:15:32;21.60;99.90
8178;DHT22;4130;48.740;9.132;2022-09-09T10:18:17;22.00;99.90
8178;DHT22;4130;48.740;9.132;2022-09-09T10:20:53;22.40;99.90
8178;DHT22;4130;48.740;9.132;2022-09-09T10:23:33;22.50;99.90
8178;DHT22;4130;48.740;9.132;2022-09-09T10:26:11;22.50;99.90
8178;DHT22;4130;48.740;9.132;2022-09-09T10:31:49;23.10;99.90
8178;DHT22;4130;48.740;9.132;2022-09-09T10:34:36;23.40;99.90
8178;DHT22;4130;48.740;9.132;2022-09-09T10:37:14;23.40;99.90
8178;DHT22;4130;48.740;9.132;2022-09-09T10:39:50;23.10;99.90
8178;DHT22;4130;48.740;9.132;2022-09-09T10:42:29;22.90;99.90
8178;DHT22;4130;48.740;9.132;2022-09-09T10:45:07;22.40;99.90
8178;DHT22;4130;48.740;9.132;2022-09-09T10:47:58;21.90;99.90
8178;DHT22;4130;48.740;9.132;2022-09-09T10:50:51;21.60;99.90
8178;DHT22;4130;48.740;9.132;2022-09-09T10:53:28;21.80;99.90
8178;DHT22;4130;48.740;9.132;2022-09-09T10:56:03;22.10;99.90
8178;DHT22;4130;48.740;9.132;2022-09-09T10:58:37;22.80;99.90
8178;DHT22;4130;48.740;9.132;2022-09-09T11:01:12;23.40;99.90
8178;DHT22;4130;48.740;9.132;2022-09-09T11:03:43;23.30;99.90
8178;DHT22;4130;48.740;9.132;2022-09-09T11:06:16;23.30;99.90
8178;DHT22;4130;48.740;9.132;2022-09-09T11:08:45;23.10;99.90
8178;DHT22;4130;48.740;9.132;2022-09-09T11:11:17;23.00;99.90
8178;DHT22;4130;48.740;9.132;2022-09-09T11:13:53;22.90;99.90
8178;DHT22;4130;48.740;9.132;2022-09-09T11:16:25;23.00;99.90
8178;DHT22;4130;48.740;9.132;2022-09-09T11:18:58;23.00;99.90
8178;DHT22;4130;48.740;9.132;2022-09-09T11:21:30;22.70;99.90
8178;DHT22;4130;48.740;9.132;2022-09-09T11:24:03;22.20;97.70
8178;DHT22;4130;48.740;9.132;2022-09-09T11:26:35;21.60;98.20
8178;DHT22;4130;48.740;9.132;2022-09-09T11:29:24;21.00;97.00
8178;DHT22;4130;48.740;9.132;2022-09-09T11:32:04;20.50;97.60
8178;DHT22;4130;48.740;9.132;2022-09-09T11:34:52;20.40;97.70
8178;DHT22;4130;48.740;9.132;2022-09-09T11:37:44;20.40;98.70
8178;DHT22;4130;48.740;9.132;2022-09-09T11:40:19;20.60;98.60
8178;DHT22;4130;48.740;9.132;2022-09-09T11:42:46;20.40;98.40
8178;DHT22;4130;48.740;9.132;2022-09-09T11:45:24;20.30;99.10
8178;DHT22;4130;48.740;9.132;2022-09-09T11:47:55;20.20;99.00
8178;DHT22;4130;48.740;9.132;2022-09-09T11:50:35;19.90;98.50
8178;DHT22;4130;48.740;9.132;2022-09-09T11:53:20;19.60;98.50
8178;DHT22;4130;48.740;9.132;2022-09-09T11:58:36;19.80;99.10
8178;DHT22;4130;48.740;9.132;2022-09-09T12:01:14;20.20;99.10
8178;DHT22;4130;48.740;9.132;2022-09-09T12:03:43;20.70;98.10
8178;DHT22;4130;48.740;9.132;2022-09-09T12:06:16;20.90;98.50
8178;DHT22;4130;48.740;9.132;2022-09-09T12:08:46;20.70;98.00
8178;DHT22;4130;48.740;9.132;2022-09-09T12:11:25;20.60;97.70
8178;DHT22;4130;48.740;9.132;2022-09-09T12:13:54;20.70;98.30
8178;DHT22;4130;48.740;9.132;2022-09-09T12:16:32;20.90;98.60
8178;DHT22;4130;48.740;9.132;2022-09-09T12:19:05;21.20;98.40
8178;DHT22;4130;48.740;9.132;2022-09-09T12:21:39;21.50;97.10
8178;DHT22;4130;48.740;9.132;2022-09-09T12:24:11;21.70;97.10
8178;DHT22;4130;48.740;9.132;2022-09-09T12:26:42;21.80;96.30
8178;DHT22;4130;48.740;9.132;2022-09-09T12:29:20;21.80;96.60
8178;DHT22;4130;48.740;9.132;2022-09-09T12:31:58;22.00;96.90
8178;DHT22;4130;48.740;9.132;2022-09-09T12:34:38;21.90;95.50
8178;DHT22;4130;48.740;9.132;2022-09-09T12:37:25;21.60;94.60
8178;DHT22;4130;48.740;9.132;2022-09-09T12:39:55;21.40;95.10
8178;DHT22;4130;48.740;9.132;2022-09-09T12:42:23;21.20;95.40
8178;DHT22;4130;48.740;9.132;2022-09-09T12:44:55;21.00;95.70
8178;DHT22;4130;48.740;9.132;2022-09-09T12:47:26;20.80;96.30
8178;DHT22;4130;48.740;9.132;2022-09-09T12:49:53;20.50;96.60
8178;DHT22;4130;48.740;9.132;2022-09-09T12:52:27;19.60;96.90
8178;DHT22;4130;48.740;9.132;2022-09-09T12:54:56;20.50;97.20
8178;DHT22;4130;48.740;9.132;2022-09-09T12:57:25;20.40;97.30
8178;DHT22;4130;48.740;9.132;2022-09-09T12:59:52;20.20;98.00
8178;DHT22;4130;48.740;9.132;2022-09-09T13:02:30;20.20;97.40
8178;DHT22;4130;48.740;9.132;2022-09-09T13:05:08;20.30;97.70
8178;DHT22;4130;48.740;9.132;2022-09-09T13:07:40;20.50;97.20
8178;DHT22;4130;48.740;9.132;2022-09-09T13:10:11;20.60;97.00
8178;DHT22;4130;48.740;9.132;2022-09-09T13:12:38;20.80;96.90
8178;DHT22;4130;48.740;9.132;2022-09-09T13:15:14;20.70;96.80
8178;DHT22;4130;48.740;9.132;2022-09-09T13:17:50;21.00;97.10
8178;DHT22;4130;48.740;9.132;2022-09-09T13:20:18;21.50;96.60
8178;DHT22;4130;48.740;9.132;2022-09-09T13:22:48;21.80;96.40
8178;DHT22;4130;48.740;9.132;2022-09-09T13:25:21;21.90;95.70
8178;DHT22;4130;48.740;9.132;2022-09-09T13:28:00;21.80;95.30
8178;DHT22;4130;48.740;9.132;2022-09-09T13:30:29;21.70;94.40
8178;DHT22;4130;48.740;9.132;2022-09-09T13:33:17;21.70;94.80
8178;DHT22;4130;48.740;9.132;2022-09-09T13:35:46;21.70;94.70
8178;DHT22;4130;48.740;9.132;2022-09-09T13:38:16;21.80;94.20
8178;DHT22;4130;48.740;9.132;2022-09-09T13:40:53;21.70;94.10
8178;DHT22;4130;48.740;9.132;2022-09-09T13:43:24;21.20;94.70
8178;DHT22;4130;48.740;9.132;2022-09-09T13:45:55;21.00;95.20
8178;DHT22;4130;48.740;9.132;2022-09-09T13:48:24;21.30;95.30
8178;DHT22;4130;48.740;9.132;2022-09-09T13:50:55;21.50;95.10
8178;DHT22;4130;48.740;9.132;2022-09-09T13:53:23;21.30;95.20
8178;DHT22;4130;48.740;9.132;2022-09-09T13:55:50;21.50;95.00
8178;DHT22;4130;48.740;9.132;2022-09-09T13:58:18;21.80;94.40
8178;DHT22;4130;48.740;9.132;2022-09-09T14:00:45;22.00;94.40
8178;DHT22;4130;48.740;9.132;2022-09-09T14:03:12;22.10;94.40
8178;DHT22;4130;48.740;9.132;2022-09-09T14:05:40;22.10;94.00
8178;DHT22;4130;48.740;9.132;2022-09-09T14:08:10;22.10;93.70
8178;DHT22;4130;48.740;9.132;2022-09-09T14:10:42;23.30;94.30
8178;DHT22;4130;48.740;9.132;2022-09-09T14:13:09;22.40;94.60
8178;DHT22;4130;48.740;9.132;2022-09-09T14:15:37;21.50;94.10
8178;DHT22;4130;48.740;9.132;2022-09-09T14:18:04;21.50;94.20
8178;DHT22;4130;48.740;9.132;2022-09-09T14:20:31;21.60;94.10
8178;DHT22;4130;48.740;9.132;2022-09-09T14:22:58;21.60;94.20
8178;DHT22;4130;48.740;9.132;2022-09-09T14:25:25;21.80;93.80
8178;DHT22;4130;48.740;9.132;2022-09-09T14:27:54;22.00;93.80
8178;DHT22;4130;48.740;9.132;2022-09-09T14:30:22;22.20;92.90
8178;DHT22;4130;48.740;9.132;2022-09-09T14:32:48;22.30;92.20
8178;DHT22;4130;48.740;9.132;2022-09-09T14:35:15;22.20;92.50
8178;DHT22;4130;48.740;9.132;2022-09-09T14:37:43;22.00;92.20
8178;DHT22;4130;48.740;9.132;2022-09-09T14:40:10;21.70;93.00
8178;DHT22;4130;48.740;9.132;2022-09-09T14:42:37;21.60;93.20
8178;DHT22;4130;48.740;9.132;2022-09-09T14:45:07;21.70;93.00
8178;DHT22;4130;48.740;9.132;2022-09-09T14:47:33;21.80;93.00
8178;DHT22;4130;48.740;9.132;2022-09-09T14:50:00;21.70;92.60
8178;DHT22;4130;48.740;9.132;2022-09-09T14:52:29;21.70;92.90
8178;DHT22;4130;48.740;9.132;2022-09-09T14:54:56;21.80;93.00
8178;DHT22;4130;48.740;9.132;2022-09-09T14:57:23;21.80;92.60
8178;DHT22;4130;48.740;9.132;2022-09-09T14:59:50;21.90;92.80
8178;DHT22;4130;48.740;9.132;2022-09-09T15:02:18;22.10;92.30
8178;DHT22;4130;48.740;9.132;2022-09-09T15:04:44;22.10;92.60
8178;DHT22;4130;48.740;9.132;2022-09-09T15:07:11;22.10;92.50
8178;DHT22;4130;48.740;9.132;2022-09-09T15:09:38;21.80;92.50
8178;DHT22;4130;48.740;9.132;2022-09-09T15:12:05;22.00;92.50
8178;DHT22;4130;48.740;9.132;2022-09-09T15:14:32;21.50;92.30
8178;DHT22;4130;48.740;9.132;2022-09-09T15:16:59;21.40;92.60
8178;DHT22;4130;48.740;9.132;2022-09-09T15:19:27;21.20;93.10
8178;DHT22;4130;48.740;9.132;2022-09-09T15:21:54;21.10;93.10
8178;DHT22;4130;48.740;9.132;2022-09-09T15:24:21;21.10;92.70
8178;DHT22;4130;48.740;9.132;2022-09-09T15:26:48;21.20;92.70
8178;DHT22;4130;48.740;9.132;2022-09-09T15:29:15;21.30;92.90
8178;DHT22;4130;48.740;9.132;2022-09-09T15:31:41;21.70;92.90
8178;DHT22;4130;48.740;9.132;2022-09-09T15:34:08;22.00;92.30
8178;DHT22;4130;48.740;9.132;2022-09-09T15:36:38;22.10;92.30
8178;DHT22;4130;48.740;9.132;2022-09-09T15:39:06;22.10;92.30
8178;DHT22;4130;48.740;9.132;2022-09-09T15:41:33;21.80;92.50
8178;DHT22;4130;48.740;9.132;2022-09-09T15:44:01;21.50;92.20
8178;DHT22;4130;48.740;9.132;2022-09-09T15:46:30;21.10;92.10
8178;DHT22;4130;48.740;9.132;2022-09-09T15:49:02;20.70;92.30
8178;DHT22;4130;48.740;9.132;2022-09-09T15:51:29;20.50;92.40
8178;DHT22;4130;48.740;9.132;2022-09-09T15:53:58;20.40;92.20
8178;DHT22;4130;48.740;9.132;2022-09-09T15:56:26;20.30;92.60
8178;DHT22;4130;48.740;9.132;2022-09-09T15:58:55;20.20;92.50
8178;DHT22;4130;48.740;9.132;2022-09-09T16:01:23;20.20;92.50
8178;DHT22;4130;48.740;9.132;2022-09-09T16:03:49;20.10;92.50
8178;DHT22;4130;48.740;9.132;2022-09-09T16:06:17;20.00;92.50
8178;DHT22;4130;48.740;9.132;2022-09-09T16:08:48;20.00;92.70
8178;DHT22;4130;48.740;9.132;2022-09-09T16:11:18;19.90;92.60
8178;DHT22;4130;48.740;9.132;2022-09-09T16:13:46;19.90;92.80
8178;DHT22;4130;48.740;9.132;2022-09-09T16:16:15;19.90;92.90
8178;DHT22;4130;48.740;9.132;2022-09-09T16:18:45;19.90;93.30
8178;DHT22;4130;48.740;9.132;2022-09-09T16:21:14;19.80;93.20
8178;DHT22;4130;48.740;9.132;2022-09-09T16:23:41;19.70;92.90
8178;DHT22;4130;48.740;9.132;2022-09-09T16:26:11;19.70;93.20
8178;DHT22;4130;48.740;9.132;2022-09-09T16:28:40;19.60;93.40
8178;DHT22;4130;48.740;9.132;2022-09-09T16:31:07;19.70;93.40